sensor_id;sensor_type;location;lat;lon;timestamp;P1;durP1;ratioP1;P2;durP2;ratioP2
63296;SDS011;49419;51.716;-4.948;2023-02-11T00:01:08;10.00;;;9.30;;
63296;SDS011;49419;51.716;-4.948;2023-02-11T00:03:35;9.80;;;9.20;;
63296;SDS011;49419;51.716;-4.948;2023-02-11T00:06:03;9.48;;;8.95;;
63296;SDS011;49419;51.716;-4.948;2023-02-11T00:08:33;9.60;;;9.00;;
63296;SDS011;49419;51.716;-4.948;2023-02-11T00:10:59;10.07;;;9.32;;
63296;SDS011;49419;51.716;-4.948;2023-02-11T00:13:25;10.68;;;9.77;;
63296;SDS011;49419;51.716;-4.948;2023-02-11T00:15:51;10.52;;;9.55;;
63296;SDS011;49419;51.716;-4.948;2023-02-11T00:18:18;9.52;;;8.93;;
63296;SDS011;49419;51.716;-4.948;2023-02-11T00:20:43;9.60;;;9.00;;
63296;SDS011;49419;51.716;-4.948;2023-02-11T00:23:09;9.70;;;9.10;;
63296;SDS011;49419;51.716;-4.948;2023-02-11T00:25:41;9.73;;;9.02;;
63296;SDS011;49419;51.716;-4.948;2023-02-11T00:28:08;10.05;;;9.35;;
63296;SDS011;49419;51.716;-4.948;2023-02-11T00:30:34;9.98;;;9.25;;
63296;SDS011;49419;51.716;-4.948;2023-02-11T00:33:04;9.70;;;9.10;;
63296;SDS011;49419;51.716;-4.948;2023-02-11T00:35:30;9.95;;;9.25;;
63296;SDS011;49419;51.716;-4.948;2023-02-11T00:37:56;10.40;;;9.50;;
63296;SDS011;49419;51.716;-4.948;2023-02-11T00:40:21;10.38;;;9.45;;
63296;SDS011;49419;51.716;-4.948;2023-02-11T00:42:47;9.63;;;9.02;;
63296;SDS011;49419;51.716;-4.948;2023-02-11T00:45:15;9.73;;;9.07;;
63296;SDS011;49419;51.716;-4.948;2023-02-11T00:47:40;10.13;;;9.40;;
63296;SDS011;49419;51.716;-4.948;2023-02-11T00:50:06;10.30;;;9.50;;
63296;SDS011;49419;51.716;-4.948;2023-02-11T00:52:32;10.80;;;9.90;;
63296;SDS011;49419;51.716;-4.948;2023-02-11T00:54:57;10.30;;;9.50;;
63296;SDS011;49419;51.716;-4.948;2023-02-11T00:57:23;10.18;;;9.57;;
63296;SDS011;49419;51.716;-4.948;2023-02-11T00:59:48;10.23;;;9.43;;
63296;SDS011;49419;51.716;-4.948;2023-02-11T01:02:14;10.00;;;9.40;;
63296;SDS011;49419;51.716;-4.948;2023-02-11T01:04:40;10.27;;;9.50;;
63296;SDS011;49419;51.716;-4.948;2023-02-11T01:07:06;10.95;;;9.88;;
63296;SDS011;49419;51.716;-4.948;2023-02-11T01:09:31;10.35;;;9.50;;
63296;SDS011;49419;51.716;-4.948;2023-02-11T01:12:01;10.18;;;9.48;;
63296;SDS011;49419;51.716;-4.948;2023-02-11T01:14:27;10.30;;;9.50;;
63296;SDS011;49419;51.716;-4.948;2023-02-11T01:16:52;10.95;;;10.10;;
63296;SDS011;49419;51.716;-4.948;2023-02-11T01:19:18;10.30;;;9.60;;
63296;SDS011;49419;51.716;-4.948;2023-02-11T01:21:43;10.57;;;9.88;;
63296;SDS011;49419;51.716;-4.948;2023-02-11T01:24:08;10.40;;;9.73;;
63296;SDS011;49419;51.716;-4.948;2023-02-11T01:26:34;10.38;;;9.68;;
63296;SDS011;49419;51.716;-4.948;2023-02-11T01:29:00;10.10;;;9.50;;
63296;SDS011;49419;51.716;-4.948;2023-02-11T01:31:25;10.27;;;9.57;;
63296;SDS011;49419;51.716;-4.948;2023-02-11T01:33:51;10.10;;;9.50;;
63296;SDS011;49419;51.716;-4.948;2023-02-11T01:36:17;9.95;;;9.25;;
63296;SDS011;49419;51.716;-4.948;2023-02-11T01:38:42;10.18;;;9.48;;
63296;SDS011;49419;51.716;-4.948;2023-02-11T01:41:10;10.25;;;9.55;;
63296;SDS011;49419;51.716;-4.948;2023-02-11T01:43:38;10.27;;;9.63;;
63296;SDS011;49419;51.716;-4.948;2023-02-11T01:46:12;10.13;;;9.43;;
63296;SDS011;49419;51.716;-4.948;2023-02-11T01:48:46;10.38;;;9.60;;
63296;SDS011;49419;51.716;-4.948;2023-02-11T01:51:17;10.10;;;9.50;;
63296;SDS011;49419;51.716;-4.948;2023-02-11T01:54:03;10.55;;;9.80;;
63296;SDS011;49419;51.716;-4.948;2023-02-11T01:56:49;10.50;;;9.80;;
63296;SDS011;49419;51.716;-4.948;2023-02-11T01:59:40;10.80;;;9.88;;
63296;SDS011;49419;51.716;-4.948;2023-02-11T02:02:26;10.50;;;9.70;;
63296;SDS011;49419;51.716;-4.948;2023-02-11T02:05:01;10.10;;;9.50;;
63296;SDS011;49419;51.716;-4.948;2023-02-11T02:07:37;10.43;;;9.63;;
63296;SDS011;49419;51.716;-4.948;2023-02-11T02:10:21;10.48;;;9.77;;
63296;SDS011;49419;51.716;-4.948;2023-02-11T02:12:49;10.70;;;9.90;;
63296;SDS011;49419;51.716;-4.948;2023-02-11T02:15:23;10.93;;;10.00;;
63296;SDS011;49419;51.716;-4.948;2023-02-11T02:23:34;10.77;;;9.98;;
63296;SDS011;49419;51.716;-4.948;2023-02-11T02:26:23;11.38;;;10.27;;
63296;SDS011;49419;51.716;-4.948;2023-02-11T02:43:25;10.77;;;9.90;;
63296;SDS011;49419;51.716;-4.948;2023-02-11T02:45:51;10.35;;;9.60;;
63296;SDS011;49419;51.716;-4.948;2023-02-11T02:48:24;11.38;;;10.20;;
63296;SDS011;49419;51.716;-4.948;2023-02-11T02:50:53;11.10;;;10.20;;
63296;SDS011;49419;51.716;-4.948;2023-02-11T02:56:43;10.73;;;9.95;;
63296;SDS011;49419;51.716;-4.948;2023-02-11T02:59:37;10.80;;;10.10;;
63296;SDS011;49419;51.716;-4.948;2023-02-11T03:02:12;10.60;;;9.90;;
63296;SDS011;49419;51.716;-4.948;2023-02-11T03:07:59;10.93;;;10.13;;
63296;SDS011;49419;51.716;-4.948;2023-02-11T03:10:51;10.85;;;9.98;;
63296;SDS011;49419;51.716;-4.948;2023-02-11T03:13:16;10.57;;;9.77;;
63296;SDS011;49419;51.716;-4.948;2023-02-11T03:15:46;10.80;;;10.02;;
63296;SDS011;49419;51.716;-4.948;2023-02-11T03:18:15;11.00;;;10.20;;
63296;SDS011;49419;51.716;-4.948;2023-02-11T03:20:44;10.73;;;9.95;;
63296;SDS011;49419;51.716;-4.948;2023-02-11T03:26:07;11.00;;;10.10;;
63296;SDS011;49419;51.716;-4.948;2023-02-11T03:34:25;10.45;;;9.70;;
63296;SDS011;49419;51.716;-4.948;2023-02-11T03:40:08;10.57;;;9.88;;
63296;SDS011;49419;51.716;-4.948;2023-02-11T03:42:40;10.70;;;9.80;;
63296;SDS011;49419;51.716;-4.948;2023-02-11T03:45:11;10.55;;;9.80;;
63296;SDS011;49419;51.716;-4.948;2023-02-11T03:47:40;11.20;;;10.20;;
63296;SDS011;49419;51.716;-4.948;2023-02-11T03:50:10;10.80;;;9.80;;
63296;SDS011;49419;51.716;-4.948;2023-02-11T03:52:39;10.60;;;9.80;;
63296;SDS011;49419;51.716;-4.948;2023-02-11T03:55:07;10.55;;;9.75;;
63296;SDS011;49419;51.716;-4.948;2023-02-11T03:57:35;10.77;;;9.88;;
63296;SDS011;49419;51.716;-4.948;2023-02-11T04:00:02;10.48;;;9.77;;
63296;SDS011;49419;51.716;-4.948;2023-02-11T04:02:30;10.40;;;9.65;;
63296;SDS011;49419;51.716;-4.948;2023-02-11T04:04:57;10.33;;;9.67;;
63296;SDS011;49419;51.716;-4.948;2023-02-11T04:09:53;11.02;;;10.13;;
63296;SDS011;49419;51.716;-4.948;2023-02-11T04:12:21;11.13;;;10.30;;
63296;SDS011;49419;51.716;-4.948;2023-02-11T04:14:46;10.48;;;9.75;;
63296;SDS011;49419;51.716;-4.948;2023-02-11T04:17:14;10.50;;;9.70;;
63296;SDS011;49419;51.716;-4.948;2023-02-11T04:19:39;10.30;;;9.60;;
63296;SDS011;49419;51.716;-4.948;2023-02-11T04:22:05;10.18;;;9.57;;
63296;SDS011;49419;51.716;-4.948;2023-02-11T04:24:31;10.40;;;9.60;;
63296;SDS011;49419;51.716;-4.948;2023-02-11T04:26:57;10.25;;;9.63;;
63296;SDS011;49419;51.716;-4.948;2023-02-11T04:29:25;10.50;;;9.85;;
63296;SDS011;49419;51.716;-4.948;2023-02-11T04:31:52;10.20;;;9.60;;
63296;SDS011;49419;51.716;-4.948;2023-02-11T04:34:18;10.35;;;9.70;;
63296;SDS011;49419;51.716;-4.948;2023-02-11T04:36:43;10.70;;;9.90;;
63296;SDS011;49419;51.716;-4.948;2023-02-11T04:39:09;10.90;;;9.93;;
63296;SDS011;49419;51.716;-4.948;2023-02-11T04:41:34;10.40;;;9.80;;
63296;SDS011;49419;51.716;-4.948;2023-02-11T04:43:59;10.57;;;9.93;;
63296;SDS011;49419;51.716;-4.948;2023-02-11T04:46:25;10.65;;;9.95;;
63296;SDS011;49419;51.716;-4.948;2023-02-11T04:48:50;9.93;;;9.40;;
63296;SDS011;49419;51.716;-4.948;2023-02-11T04:51:16;10.27;;;9.57;;
63296;SDS011;49419;51.716;-4.948;2023-02-11T04:53:41;10.35;;;9.75;;
63296;SDS011;49419;51.716;-4.948;2023-02-11T04:56:07;10.27;;;9.68;;
63296;SDS011;49419;51.716;-4.948;2023-02-11T04:58:32;10.18;;;9.57;;
63296;SDS011;49419;51.716;-4.948;2023-02-11T05:01:04;10.23;;;9.52;;
63296;SDS011;49419;51.716;-4.948;2023-02-11T05:03:31;10.68;;;9.98;;
63296;SDS011;49419;51.716;-4.948;2023-02-11T05:05:56;10.70;;;10.00;;
63296;SDS011;49419;51.716;-4.948;2023-02-11T05:08:22;10.40;;;9.70;;
63296;SDS011;49419;51.716;-4.948;2023-02-11T05:10:47;10.13;;;9.52;;
63296;SDS011;49419;51.716;-4.948;2023-02-11T05:13:13;10.82;;;10.02;;
63296;SDS011;49419;51.716;-4.948;2023-02-11T05:15:41;10.30;;;9.70;;
63296;SDS011;49419;51.716;-4.948;2023-02-11T05:18:06;10.40;;;9.70;;
63296;SDS011;49419;51.716;-4.948;2023-02-11T05:20:31;10.27;;;9.57;;
63296;SDS011;49419;51.716;-4.948;2023-02-11T05:22:57;10.35;;;9.73;;
63296;SDS011;49419;51.716;-4.948;2023-02-11T05:25:22;10.18;;;9.57;;
63296;SDS011;49419;51.716;-4.948;2023-02-11T05:27:48;10.40;;;9.80;;
63296;SDS011;49419;51.716;-4.948;2023-02-11T05:30:13;10.45;;;9.75;;
63296;SDS011;49419;51.716;-4.948;2023-02-11T05:32:39;10.32;;;9.65;;
63296;SDS011;49419;51.716;-4.948;2023-02-11T05:35:04;10.45;;;9.75;;
63296;SDS011;49419;51.716;-4.948;2023-02-11T05:37:30;11.00;;;10.10;;
63296;SDS011;49419;51.716;-4.948;2023-02-11T05:39:55;10.95;;;10.07;;
63296;SDS011;49419;51.716;-4.948;2023-02-11T05:42:21;10.50;;;9.90;;
63296;SDS011;49419;51.716;-4.948;2023-02-11T05:44:46;10.65;;;9.95;;
63296;SDS011;49419;51.716;-4.948;2023-02-11T05:47:11;10.27;;;9.68;;
63296;SDS011;49419;51.716;-4.948;2023-02-11T05:49:37;10.10;;;9.50;;
63296;SDS011;49419;51.716;-4.948;2023-02-11T05:52:03;10.20;;;9.50;;
63296;SDS011;49419;51.716;-4.948;2023-02-11T05:54:44;10.25;;;9.55;;
63296;SDS011;49419;51.716;-4.948;2023-02-11T05:57:10;10.30;;;9.50;;
63296;SDS011;49419;51.716;-4.948;2023-02-11T05:59:35;10.18;;;9.50;;
63296;SDS011;49419;51.716;-4.948;2023-02-11T06:02:01;10.10;;;9.50;;
63296;SDS011;49419;51.716;-4.948;2023-02-11T06:04:26;9.65;;;9.15;;
63296;SDS011;49419;51.716;-4.948;2023-02-11T06:06:54;10.27;;;9.68;;
63296;SDS011;49419;51.716;-4.948;2023-02-11T06:09:19;10.20;;;9.60;;
63296;SDS011;49419;51.716;-4.948;2023-02-11T06:11:45;10.30;;;9.70;;
63296;SDS011;49419;51.716;-4.948;2023-02-11T06:14:10;10.48;;;9.77;;
63296;SDS011;49419;51.716;-4.948;2023-02-11T06:16:36;10.20;;;9.57;;
63296;SDS011;49419;51.716;-4.948;2023-02-11T06:19:02;10.50;;;9.90;;
63296;SDS011;49419;51.716;-4.948;2023-02-11T06:21:27;10.70;;;10.00;;
63296;SDS011;49419;51.716;-4.948;2023-02-11T06:23:53;11.07;;;10.38;;
63296;SDS011;49419;51.716;-4.948;2023-02-11T06:26:21;10.43;;;9.82;;
63296;SDS011;49419;51.716;-4.948;2023-02-11T06:28:47;10.68;;;10.07;;
63296;SDS011;49419;51.716;-4.948;2023-02-11T06:31:13;10.32;;;9.73;;
63296;SDS011;49419;51.716;-4.948;2023-02-11T06:33:39;10.18;;;9.57;;
63296;SDS011;49419;51.716;-4.948;2023-02-11T06:36:10;10.20;;;9.60;;
63296;SDS011;49419;51.716;-4.948;2023-02-11T06:38:38;10.07;;;9.48;;
63296;SDS011;49419;51.716;-4.948;2023-02-11T06:41:03;10.20;;;9.60;;
63296;SDS011;49419;51.716;-4.948;2023-02-11T06:43:28;10.48;;;9.80;;
63296;SDS011;49419;51.716;-4.948;2023-02-11T06:45:54;10.20;;;9.60;;
63296;SDS011;49419;51.716;-4.948;2023-02-11T06:48:20;10.00;;;9.48;;
63296;SDS011;49419;51.716;-4.948;2023-02-11T06:50:46;10.23;;;9.63;;
63296;SDS011;49419;51.716;-4.948;2023-02-11T06:53:11;10.50;;;9.90;;
63296;SDS011;49419;51.716;-4.948;2023-02-11T06:55:37;10.25;;;9.65;;
63296;SDS011;49419;51.716;-4.948;2023-02-11T06:58:02;10.07;;;9.50;;
63296;SDS011;49419;51.716;-4.948;2023-02-11T07:00:28;9.68;;;9.18;;
63296;SDS011;49419;51.716;-4.948;2023-02-11T07:02:53;10.05;;;9.45;;
63296;SDS011;49419;51.716;-4.948;2023-02-11T07:05:19;9.65;;;9.15;;
63296;SDS011;49419;51.716;-4.948;2023-02-11T07:07:45;9.73;;;9.23;;
63296;SDS011;49419;51.716;-4.948;2023-02-11T07:10:11;9.45;;;8.95;;
63296;SDS011;49419;51.716;-4.948;2023-02-11T07:12:37;9.52;;;9.02;;
63296;SDS011;49419;51.716;-4.948;2023-02-11T07:15:02;9.40;;;8.90;;
63296;SDS011;49419;51.716;-4.948;2023-02-11T07:17:28;9.35;;;8.85;;
63296;SDS011;49419;51.716;-4.948;2023-02-11T07:19:54;9.00;;;8.50;;
63296;SDS011;49419;51.716;-4.948;2023-02-11T07:22:19;9.10;;;8.60;;
63296;SDS011;49419;51.716;-4.948;2023-02-11T07:24:45;9.25;;;8.70;;
63296;SDS011;49419;51.716;-4.948;2023-02-11T07:27:10;9.05;;;8.55;;
63296;SDS011;49419;51.716;-4.948;2023-02-11T07:29:36;9.10;;;8.60;;
63296;SDS011;49419;51.716;-4.948;2023-02-11T07:32:01;8.95;;;8.45;;
63296;SDS011;49419;51.716;-4.948;2023-02-11T07:34:27;8.80;;;8.30;;
63296;SDS011;49419;51.716;-4.948;2023-02-11T07:36:54;9.00;;;8.50;;
63296;SDS011;49419;51.716;-4.948;2023-02-11T07:39:20;8.90;;;8.40;;
63296;SDS011;49419;51.716;-4.948;2023-02-11T07:41:46;8.82;;;8.32;;
63296;SDS011;49419;51.716;-4.948;2023-02-11T07:44:13;8.85;;;8.35;;
63296;SDS011;49419;51.716;-4.948;2023-02-11T07:46:39;8.93;;;8.43;;
63296;SDS011;49419;51.716;-4.948;2023-02-11T07:49:08;8.95;;;8.45;;
63296;SDS011;49419;51.716;-4.948;2023-02-11T07:51:34;8.77;;;8.27;;
63296;SDS011;49419;51.716;-4.948;2023-02-11T07:53:59;8.80;;;8.30;;
63296;SDS011;49419;51.716;-4.948;2023-02-11T07:56:25;8.45;;;8.05;;
63296;SDS011;49419;51.716;-4.948;2023-02-11T07:58:51;8.70;;;8.20;;
63296;SDS011;49419;51.716;-4.948;2023-02-11T08:01:21;8.80;;;8.30;;
63296;SDS011;49419;51.716;-4.948;2023-02-11T08:03:49;8.93;;;8.43;;
63296;SDS011;49419;51.716;-4.948;2023-02-11T08:06:16;8.75;;;8.27;;
63296;SDS011;49419;51.716;-4.948;2023-02-11T08:08:52;8.65;;;8.25;;
63296;SDS011;49419;51.716;-4.948;2023-02-11T08:11:19;8.60;;;8.20;;
63296;SDS011;49419;51.716;-4.948;2023-02-11T08:13:46;8.80;;;8.30;;
63296;SDS011;49419;51.716;-4.948;2023-02-11T08:18:45;8.95;;;8.45;;
63296;SDS011;49419;51.716;-4.948;2023-02-11T08:21:11;8.70;;;8.20;;
63296;SDS011;49419;51.716;-4.948;2023-02-11T08:23:37;8.27;;;7.88;;
63296;SDS011;49419;51.716;-4.948;2023-02-11T08:26:08;8.57;;;8.07;;
63296;SDS011;49419;51.716;-4.948;2023-02-11T08:28:36;8.45;;;8.05;;
63296;SDS011;49419;51.716;-4.948;2023-02-11T08:31:08;8.32;;;7.93;;
63296;SDS011;49419;51.716;-4.948;2023-02-11T08:33:35;8.55;;;8.15;;
63296;SDS011;49419;51.716;-4.948;2023-02-11T08:36:01;8.40;;;8.00;;
63296;SDS011;49419;51.716;-4.948;2023-02-11T08:38:34;8.27;;;7.82;;
63296;SDS011;49419;51.716;-4.948;2023-02-11T08:41:03;7.97;;;7.57;;
63296;SDS011;49419;51.716;-4.948;2023-02-11T08:43:29;8.52;;;8.02;;
63296;SDS011;49419;51.716;-4.948;2023-02-11T08:45:54;8.18;;;7.78;;
63296;SDS011;49419;51.716;-4.948;2023-02-11T08:48:22;8.13;;;7.72;;
63296;SDS011;49419;51.716;-4.948;2023-02-11T08:50:47;8.07;;;7.68;;
63296;SDS011;49419;51.716;-4.948;2023-02-11T08:53:13;8.20;;;7.80;;
63296;SDS011;49419;51.716;-4.948;2023-02-11T08:55:48;8.10;;;7.70;;
63296;SDS011;49419;51.716;-4.948;2023-02-11T08:58:14;8.23;;;7.82;;
63296;SDS011;49419;51.716;-4.948;2023-02-11T09:00:40;8.10;;;7.70;;
63296;SDS011;49419;51.716;-4.948;2023-02-11T09:03:07;7.75;;;7.35;;
63296;SDS011;49419;51.716;-4.948;2023-02-11T09:05:32;7.75;;;7.35;;
63296;SDS011;49419;51.716;-4.948;2023-02-11T09:07:57;8.07;;;7.57;;
63296;SDS011;49419;51.716;-4.948;2023-02-11T09:10:23;7.93;;;7.53;;
63296;SDS011;49419;51.716;-4.948;2023-02-11T09:12:48;8.07;;;7.60;;
63296;SDS011;49419;51.716;-4.948;2023-02-11T09:15:14;7.70;;;7.30;;
63296;SDS011;49419;51.716;-4.948;2023-02-11T09:17:39;8.05;;;7.65;;
63296;SDS011;49419;51.716;-4.948;2023-02-11T09:20:04;7.60;;;7.20;;
63296;SDS011;49419;51.716;-4.948;2023-02-11T09:22:30;7.80;;;7.40;;
63296;SDS011;49419;51.716;-4.948;2023-02-11T09:24:55;7.93;;;7.53;;
63296;SDS011;49419;51.716;-4.948;2023-02-11T09:27:21;8.23;;;7.72;;
63296;SDS011;49419;51.716;-4.948;2023-02-11T09:29:46;8.05;;;7.65;;
63296;SDS011;49419;51.716;-4.948;2023-02-11T09:32:12;7.97;;;7.57;;
63296;SDS011;49419;51.716;-4.948;2023-02-11T09:34:37;7.95;;;7.55;;
63296;SDS011;49419;51.716;-4.948;2023-02-11T09:37:03;7.88;;;7.47;;
63296;SDS011;49419;51.716;-4.948;2023-02-11T09:39:28;8.00;;;7.60;;
63296;SDS011;49419;51.716;-4.948;2023-02-11T09:44:31;7.55;;;7.15;;
63296;SDS011;49419;51.716;-4.948;2023-02-11T09:49:31;7.68;;;7.28;;
63296;SDS011;49419;51.716;-4.948;2023-02-11T09:52:05;8.10;;;7.70;;
63296;SDS011;49419;51.716;-4.948;2023-02-11T09:54:58;7.95;;;7.55;;
63296;SDS011;49419;51.716;-4.948;2023-02-11T09:57:28;7.90;;;7.50;;
63296;SDS011;49419;51.716;-4.948;2023-02-11T09:59:57;7.95;;;7.55;;
63296;SDS011;49419;51.716;-4.948;2023-02-11T10:02:26;7.55;;;7.15;;
63296;SDS011;49419;51.716;-4.948;2023-02-11T10:07:35;7.90;;;7.50;;
63296;SDS011;49419;51.716;-4.948;2023-02-11T10:24:23;7.78;;;7.38;;
63296;SDS011;49419;51.716;-4.948;2023-02-11T10:26:49;7.88;;;7.47;;
63296;SDS011;49419;51.716;-4.948;2023-02-11T10:34:51;8.30;;;7.90;;
63296;SDS011;49419;51.716;-4.948;2023-02-11T10:37:19;7.97;;;7.47;;
63296;SDS011;49419;51.716;-4.948;2023-02-11T10:39:45;7.80;;;7.40;;
63296;SDS011;49419;51.716;-4.948;2023-02-11T10:42:11;7.60;;;7.20;;
63296;SDS011;49419;51.716;-4.948;2023-02-11T10:44:59;7.60;;;7.20;;
63296;SDS011;49419;51.716;-4.948;2023-02-11T10:47:33;7.88;;;7.38;;
63296;SDS011;49419;51.716;-4.948;2023-02-11T10:50:07;7.60;;;7.20;;
63296;SDS011;49419;51.716;-4.948;2023-02-11T10:52:42;7.80;;;7.40;;
63296;SDS011;49419;51.716;-4.948;2023-02-11T10:57:37;8.20;;;7.70;;
63296;SDS011;49419;51.716;-4.948;2023-02-11T11:02:56;7.63;;;7.22;;
63296;SDS011;49419;51.716;-4.948;2023-02-11T11:05:27;7.70;;;7.30;;
63296;SDS011;49419;51.716;-4.948;2023-02-11T11:08:00;7.95;;;7.50;;
63296;SDS011;49419;51.716;-4.948;2023-02-11T11:10:37;8.07;;;7.68;;
63296;SDS011;49419;51.716;-4.948;2023-02-11T11:18:30;7.80;;;7.40;;
63296;SDS011;49419;51.716;-4.948;2023-02-11T11:20:57;8.00;;;7.60;;
63296;SDS011;49419;51.716;-4.948;2023-02-11T11:23:26;8.23;;;7.83;;
63296;SDS011;49419;51.716;-4.948;2023-02-11T11:25:59;8.10;;;7.70;;
63296;SDS011;49419;51.716;-4.948;2023-02-11T11:28:25;8.32;;;7.90;;
63296;SDS011;49419;51.716;-4.948;2023-02-11T11:30:53;8.32;;;7.88;;
63296;SDS011;49419;51.716;-4.948;2023-02-11T11:33:25;8.30;;;7.90;;
63296;SDS011;49419;51.716;-4.948;2023-02-11T11:38:37;8.10;;;7.70;;
63296;SDS011;49419;51.716;-4.948;2023-02-11T11:43:51;8.35;;;7.95;;
63296;SDS011;49419;51.716;-4.948;2023-02-11T11:46:35;7.72;;;7.32;;
63296;SDS011;49419;51.716;-4.948;2023-02-11T11:54:44;8.52;;;8.02;;
63296;SDS011;49419;51.716;-4.948;2023-02-11T11:57:15;8.25;;;7.85;;
63296;SDS011;49419;51.716;-4.948;2023-02-11T11:59:43;8.25;;;7.80;;
63296;SDS011;49419;51.716;-4.948;2023-02-11T12:08:20;7.90;;;7.50;;
63296;SDS011;49419;51.716;-4.948;2023-02-11T12:11:15;8.10;;;7.70;;
63296;SDS011;49419;51.716;-4.948;2023-02-11T12:16:56;8.40;;;7.90;;
63296;SDS011;49419;51.716;-4.948;2023-02-11T12:20:01;7.85;;;7.45;;
63296;SDS011;49419;51.716;-4.948;2023-02-11T12:28:25;8.25;;;7.85;;
63296;SDS011;49419;51.716;-4.948;2023-02-11T12:50:13;8.32;;;7.82;;
63296;SDS011;49419;51.716;-4.948;2023-02-11T12:55:36;8.48;;;7.97;;
63296;SDS011;49419;51.716;-4.948;2023-02-11T12:58:09;8.82;;;8.27;;
63296;SDS011;49419;51.716;-4.948;2023-02-11T13:00:45;8.50;;;8.00;;
63296;SDS011;49419;51.716;-4.948;2023-02-11T13:04:15;8.30;;;7.80;;
63296;SDS011;49419;51.716;-4.948;2023-02-11T13:06:14;8.20;;;7.70;;
63296;SDS011;49419;51.716;-4.948;2023-02-11T13:11:16;8.50;;;8.00;;
63296;SDS011;49419;51.716;-4.948;2023-02-11T13:19:07;8.60;;;8.10;;
63296;SDS011;49419;51.716;-4.948;2023-02-11T13:27:14;8.57;;;8.07;;
63296;SDS011;49419;51.716;-4.948;2023-02-11T13:30:02;8.80;;;8.30;;
63296;SDS011;49419;51.716;-4.948;2023-02-11T13:37:51;8.60;;;8.10;;
63296;SDS011;49419;51.716;-4.948;2023-02-11T13:42:56;8.93;;;8.40;;
63296;SDS011;49419;51.716;-4.948;2023-02-11T13:48:28;9.07;;;8.40;;
63296;SDS011;49419;51.716;-4.948;2023-02-11T13:50:55;9.30;;;8.80;;
63296;SDS011;49419;51.716;-4.948;2023-02-11T13:53:23;8.90;;;8.40;;
63296;SDS011;49419;51.716;-4.948;2023-02-11T13:56:22;8.90;;;8.30;;
63296;SDS011;49419;51.716;-4.948;2023-02-11T13:58:50;8.55;;;8.05;;
63296;SDS011;49419;51.716;-4.948;2023-02-11T14:04:22;8.20;;;7.70;;
63296;SDS011;49419;51.716;-4.948;2023-02-11T14:07:25;8.07;;;7.68;;
63296;SDS011;49419;51.716;-4.948;2023-02-11T14:10:47;7.90;;;7.50;;
63296;SDS011;49419;51.716;-4.948;2023-02-11T14:13:17;8.48;;;7.97;;
63296;SDS011;49419;51.716;-4.948;2023-02-11T14:16:09;8.10;;;7.60;;
63296;SDS011;49419;51.716;-4.948;2023-02-11T14:21:15;8.45;;;8.00;;
63296;SDS011;49419;51.716;-4.948;2023-02-11T14:23:43;8.52;;;8.02;;
63296;SDS011;49419;51.716;-4.948;2023-02-11T14:28:53;8.48;;;8.00;;
63296;SDS011;49419;51.716;-4.948;2023-02-11T14:31:41;8.02;;;7.63;;
63296;SDS011;49419;51.716;-4.948;2023-02-11T14:37:17;8.10;;;7.70;;
63296;SDS011;49419;51.716;-4.948;2023-02-11T14:39:53;8.52;;;8.02;;
63296;SDS011;49419;51.716;-4.948;2023-02-11T14:42:24;7.78;;;7.38;;
63296;SDS011;49419;51.716;-4.948;2023-02-11T14:44:52;8.07;;;7.68;;
63296;SDS011;49419;51.716;-4.948;2023-02-11T14:47:22;7.72;;;7.32;;
63296;SDS011;49419;51.716;-4.948;2023-02-11T14:49:52;7.65;;;7.25;;
63296;SDS011;49419;51.716;-4.948;2023-02-11T14:52:28;8.10;;;7.50;;
63296;SDS011;49419;51.716;-4.948;2023-02-11T14:57:42;8.00;;;7.55;;
63296;SDS011;49419;51.716;-4.948;2023-02-11T15:00:15;7.57;;;7.18;;
63296;SDS011;49419;51.716;-4.948;2023-02-11T15:02:43;8.18;;;7.68;;
63296;SDS011;49419;51.716;-4.948;2023-02-11T15:05:16;7.90;;;7.50;;
63296;SDS011;49419;51.716;-4.948;2023-02-11T15:07:59;8.00;;;7.50;;
63296;SDS011;49419;51.716;-4.948;2023-02-11T15:10:42;7.75;;;7.35;;
63296;SDS011;49419;51.716;-4.948;2023-02-11T15:13:08;7.63;;;7.22;;
63296;SDS011;49419;51.716;-4.948;2023-02-11T15:15:42;7.60;;;7.10;;
63296;SDS011;49419;51.716;-4.948;2023-02-11T15:18:12;8.13;;;7.72;;
63296;SDS011;49419;51.716;-4.948;2023-02-11T15:20:48;8.05;;;7.65;;
63296;SDS011;49419;51.716;-4.948;2023-02-11T15:23:24;8.40;;;7.90;;
63296;SDS011;49419;51.716;-4.948;2023-02-11T15:25:52;8.50;;;8.00;;
63296;SDS011;49419;51.716;-4.948;2023-02-11T15:28:21;8.25;;;7.75;;
63296;SDS011;49419;51.716;-4.948;2023-02-11T15:30:54;8.55;;;8.07;;
63296;SDS011;49419;51.716;-4.948;2023-02-11T15:33:21;8.30;;;7.80;;
63296;SDS011;49419;51.716;-4.948;2023-02-11T15:35:49;8.50;;;8.00;;
63296;SDS011;49419;51.716;-4.948;2023-02-11T15:38:15;8.32;;;7.82;;
63296;SDS011;49419;51.716;-4.948;2023-02-11T15:40:50;7.93;;;7.53;;
63296;SDS011;49419;51.716;-4.948;2023-02-11T15:43:17;7.50;;;7.10;;
63296;SDS011;49419;51.716;-4.948;2023-02-11T15:45:56;7.40;;;7.00;;
63296;SDS011;49419;51.716;-4.948;2023-02-11T15:48:43;7.90;;;7.50;;
63296;SDS011;49419;51.716;-4.948;2023-02-11T15:51:20;7.30;;;6.90;;
63296;SDS011;49419;51.716;-4.948;2023-02-11T15:54:37;7.80;;;7.30;;
63296;SDS011;49419;51.716;-4.948;2023-02-11T15:56:41;7.80;;;7.30;;
63296;SDS011;49419;51.716;-4.948;2023-02-11T15:59:15;7.60;;;7.15;;
63296;SDS011;49419;51.716;-4.948;2023-02-11T16:01:42;7.00;;;6.60;;
63296;SDS011;49419;51.716;-4.948;2023-02-11T16:04:19;7.72;;;7.32;;
63296;SDS011;49419;51.716;-4.948;2023-02-11T16:06:48;7.70;;;7.30;;
63296;SDS011;49419;51.716;-4.948;2023-02-11T16:14:22;7.53;;;7.13;;
63296;SDS011;49419;51.716;-4.948;2023-02-11T16:16:57;7.40;;;7.00;;
63296;SDS011;49419;51.716;-4.948;2023-02-11T16:19:32;7.25;;;6.85;;
63296;SDS011;49419;51.716;-4.948;2023-02-11T16:21:59;7.20;;;6.80;;
63296;SDS011;49419;51.716;-4.948;2023-02-11T16:24:31;7.20;;;6.80;;
63296;SDS011;49419;51.716;-4.948;2023-02-11T16:27:02;7.28;;;6.88;;
63296;SDS011;49419;51.716;-4.948;2023-02-11T16:29:34;6.88;;;6.47;;
63296;SDS011;49419;51.716;-4.948;2023-02-11T16:32:06;6.97;;;6.65;;
63296;SDS011;49419;51.716;-4.948;2023-02-11T16:34:33;7.25;;;6.85;;
63296;SDS011;49419;51.716;-4.948;2023-02-11T16:36:58;7.30;;;6.90;;
63296;SDS011;49419;51.716;-4.948;2023-02-11T16:39:28;7.13;;;6.72;;
63296;SDS011;49419;51.716;-4.948;2023-02-11T16:41:53;7.13;;;6.72;;
63296;SDS011;49419;51.716;-4.948;2023-02-11T16:44:20;7.07;;;6.68;;
63296;SDS011;49419;51.716;-4.948;2023-02-11T16:46:45;7.35;;;6.95;;
63296;SDS011;49419;51.716;-4.948;2023-02-11T16:49:24;7.30;;;6.90;;
63296;SDS011;49419;51.716;-4.948;2023-02-11T16:51:54;7.35;;;6.95;;
63296;SDS011;49419;51.716;-4.948;2023-02-11T16:54:21;7.30;;;6.90;;
63296;SDS011;49419;51.716;-4.948;2023-02-11T16:56:47;7.05;;;6.68;;
63296;SDS011;49419;51.716;-4.948;2023-02-11T16:59:13;7.10;;;6.70;;
63296;SDS011;49419;51.716;-4.948;2023-02-11T17:01:39;7.30;;;6.90;;
63296;SDS011;49419;51.716;-4.948;2023-02-11T17:04:15;7.20;;;6.80;;
63296;SDS011;49419;51.716;-4.948;2023-02-11T17:06:43;7.50;;;7.10;;
63296;SDS011;49419;51.716;-4.948;2023-02-11T17:09:11;7.30;;;6.90;;
63296;SDS011;49419;51.716;-4.948;2023-02-11T17:11:41;7.50;;;7.10;;
63296;SDS011;49419;51.716;-4.948;2023-02-11T17:14:07;7.47;;;7.07;;
63296;SDS011;49419;51.716;-4.948;2023-02-11T17:16:32;7.57;;;7.18;;
63296;SDS011;49419;51.716;-4.948;2023-02-11T17:18:58;7.70;;;7.30;;
63296;SDS011;49419;51.716;-4.948;2023-02-11T17:21:23;7.90;;;7.40;;
63296;SDS011;49419;51.716;-4.948;2023-02-11T17:23:50;7.50;;;7.10;;
63296;SDS011;49419;51.716;-4.948;2023-02-11T17:26:17;7.40;;;7.00;;
63296;SDS011;49419;51.716;-4.948;2023-02-11T17:28:43;7.28;;;6.88;;
63296;SDS011;49419;51.716;-4.948;2023-02-11T17:31:08;7.55;;;7.15;;
63296;SDS011;49419;51.716;-4.948;2023-02-11T17:33:34;7.80;;;7.40;;
63296;SDS011;49419;51.716;-4.948;2023-02-11T17:36:07;7.60;;;7.20;;